Time;durP1;ratioP1;P1;durP2;ratioP2;P2;SDS_P1;SDS_P2;PMS_P1;PMS_P2;Temp;Humidity;BMP_temperature;BMP_pressure;BME280_temperature;BME280_humidity;BME280_pressure;Samples;Min_cycle;Max_cycle;Signal;HPM_P1;HPM_P2
2022/05/14 00:00:13;;;;;;;2.53;1.80;;;;;;;24.24;46.20;99501.56;5112155;28;20036;-66
2022/05/14 00:02:38;;;;;;;5.22;1.80;;;;;;;24.23;46.36;99497.19;5112069;28;20077;-65
2022/05/14 00:05:05;;;;;;;3.15;2.00;;;;;;;24.22;46.41;99509.56;5112138;28;20051;-60
2022/05/14 00:07:30;;;;;;;2.30;1.67;;;;;;;24.21;46.36;99505.13;5112071;28;20392;-60
2022/05/14 00:09:56;;;;;;;2.03;1.60;;;;;;;24.22;46.29;99506.75;5111999;28;20058;-60
2022/05/14 00:15:06;;;;;;;2.45;1.60;;;;;;;24.21;46.27;99501.53;5111755;28;20058;-65
2022/05/14 00:17:31;;;;;;;2.38;1.70;;;;;;;24.21;46.38;99505.13;5111162;28;20048;-65
2022/05/14 00:19:56;;;;;;;2.58;1.90;;;;;;;24.20;46.55;99499.94;5111703;28;20039;-66
2022/05/14 00:22:22;;;;;;;2.60;1.85;;;;;;;24.19;46.48;99501.94;5111802;28;20051;-66
2022/05/14 00:24:47;;;;;;;2.35;1.70;;;;;;;24.19;46.47;99506.72;5111867;28;20039;-65
2022/05/14 00:27:12;;;;;;;2.65;1.77;;;;;;;24.18;46.46;99497.56;5111744;28;20044;-60
2022/05/14 00:29:38;;;;;;;2.25;1.70;;;;;;;24.16;46.47;99503.53;5111479;28;20139;-60
2022/05/14 00:32:04;;;;;;;2.85;1.85;;;;;;;24.15;46.49;99503.94;5111789;28;20088;-60
2022/05/14 00:34:29;;;;;;;2.67;1.80;;;;;;;24.12;46.55;99497.13;5111697;28;20062;-60
2022/05/14 00:36:55;;;;;;;2.72;1.92;;;;;;;24.16;46.58;99506.34;5093381;28;20135;-60
2022/05/14 00:39:20;;;;;;;2.50;1.70;;;;;;;24.15;46.51;99496.34;5111186;28;20036;-60
2022/05/14 00:41:47;;;;;;;2.80;1.90;;;;;;;24.11;46.76;99495.53;5111681;28;20092;-60
2022/05/14 00:44:13;;;;;;;2.40;1.70;;;;;;;24.15;46.38;99506.75;5111320;28;20465;-60
2022/05/14 00:47:02;;;;;;;2.40;1.80;;;;;;;24.12;46.59;99497.13;5111292;28;20043;-60
2022/05/14 00:49:31;;;;;;;6.10;2.35;;;;;;;24.13;46.57;99503.53;5111155;28;20147;-60
2022/05/14 00:51:58;;;;;;;2.60;1.90;;;;;;;24.13;46.50;99507.13;5110952;28;20040;-60
2022/05/14 00:54:32;;;;;;;2.33;1.70;;;;;;;24.12;46.46;99501.94;5111563;28;20050;-60
2022/05/14 00:57:05;;;;;;;2.42;1.73;;;;;;;24.09;46.60;99497.13;5111311;28;20077;-60
2022/05/14 00:59:30;;;;;;;2.55;1.80;;;;;;;24.11;46.57;99495.53;5111415;28;20051;-60
2022/05/14 01:01:58;;;;;;;2.60;1.75;;;;;;;24.09;46.64;99494.34;5111511;28;20056;-60
2022/05/14 01:04:24;;;;;;;2.30;1.80;;;;;;;24.08;46.57;99496.34;5110773;28;20402;-60
2022/05/14 01:06:59;;;;;;;2.65;1.73;;;;;;;24.05;46.76;99499.09;5109013;28;20052;-60
2022/05/14 01:09:24;;;;;;;2.45;1.88;;;;;;;24.09;46.70;99499.94;5111098;28;20056;-60
2022/05/14 01:11:52;;;;;;;2.67;1.77;;;;;;;24.07;46.56;99496.72;5110897;28;20040;-60
2022/05/14 01:14:19;;;;;;;2.20;1.60;;;;;;;24.06;46.75;99504.31;5111143;28;20036;-60
2022/05/14 01:16:45;;;;;;;2.85;2.08;;;;;;;24.05;46.74;99502.69;5110566;28;20052;-60
2022/05/14 01:19:11;;;;;;;2.60;1.80;;;;;;;24.04;46.90;99503.91;5110922;28;20045;-65
2022/05/14 01:22:14;;;;;;;2.63;1.98;;;;;;;24.04;47.03;99498.31;5110779;28;20118;-65
2022/05/14 01:28:01;;;;;;;2.60;1.77;;;;;;;24.05;46.84;99499.91;5110442;28;20063;-66
2022/05/14 01:30:29;;;;;;;2.60;1.98;;;;;;;24.04;47.04;99498.31;5110490;28;20047;-65
2022/05/14 01:33:07;;;;;;;2.53;1.90;;;;;;;24.05;47.05;99491.53;5111067;28;20939;-66
2022/05/14 01:35:37;;;;;;;2.40;1.70;;;;;;;24.02;46.93;99497.13;5110821;28;20092;-65
2022/05/14 01:38:03;;;;;;;2.30;1.70;;;;;;;24.02;46.94;99495.13;5110749;28;20265;-66
2022/05/14 01:40:31;;;;;;;2.35;1.80;;;;;;;24.01;46.94;99495.53;5110264;28;20480;-66
2022/05/14 01:42:57;;;;;;;2.38;1.80;;;;;;;23.98;46.95;99491.50;5110624;28;20067;-65
2022/05/14 01:45:22;;;;;;;2.72;1.88;;;;;;;24.00;47.00;99502.28;5110530;28;20040;-66
2022/05/14 01:47:48;;;;;;;2.13;1.50;;;;;;;24.01;47.03;99489.94;5110440;28;20531;-65
2022/05/14 01:50:14;;;;;;;2.20;1.70;;;;;;;24.02;46.96;99494.31;5110615;28;20040;-65
2022/05/14 01:52:40;;;;;;;2.80;1.92;;;;;;;24.01;46.84;99485.16;5110017;28;20046;-66
2022/05/14 01:55:05;;;;;;;3.13;1.92;;;;;;;24.01;46.93;99493.53;5110475;28;20047;-66
2022/05/14 01:57:32;;;;;;;2.40;1.80;;;;;;;23.99;46.89;99493.09;5110568;28;20126;-66
2022/05/14 01:59:57;;;;;;;2.20;1.70;;;;;;;23.98;47.00;99494.31;5110354;28;20052;-65
2022/05/14 02:02:22;;;;;;;2.55;1.83;;;;;;;23.96;46.99;99496.69;5110143;28;20040;-60
2022/05/14 02:04:48;;;;;;;2.50;1.80;;;;;;;23.95;47.08;99500.69;5109959;28;20130;-60
2022/05/14 02:07:13;;;;;;;2.47;1.77;;;;;;;23.95;46.96;99495.09;5110362;28;20415;-60
2022/05/14 02:09:39;;;;;;;2.60;1.90;;;;;;;23.94;47.13;99487.91;5110194;28;20083;-60
2022/05/14 02:12:04;;;;;;;2.83;1.95;;;;;;;23.93;47.07;99483.50;5109965;28;20057;-60
2022/05/14 02:14:30;;;;;;;2.58;2.03;;;;;;;23.93;47.16;99482.69;5110277;28;20052;-60
2022/05/14 02:16:56;;;;;;;2.80;1.73;;;;;;;23.92;47.10;99484.69;5109699;28;20050;-60
2022/05/14 02:19:21;;;;;;;2.40;1.77;;;;;;;23.91;46.92;99480.31;5109909;28;20042;-66
2022/05/14 02:21:47;;;;;;;2.75;1.80;;;;;;;23.91;47.01;99483.09;5109921;28;20043;-66
2022/05/14 02:24:12;;;;;;;2.58;1.75;;;;;;;23.90;47.10;99484.28;5110164;28;20054;-60
2022/05/14 02:26:38;;;;;;;2.35;1.88;;;;;;;23.90;47.09;99478.72;5110115;28;20066;-60
2022/05/14 02:29:03;;;;;;;2.58;1.75;;;;;;;23.88;47.19;99478.31;5109702;28;20126;-60
2022/05/14 02:31:29;;;;;;;2.30;1.70;;;;;;;23.87;47.10;99480.31;5109456;28;20051;-60
2022/05/14 02:33:54;;;;;;;2.60;1.95;;;;;;;23.89;47.01;99483.50;5109983;28;20043;-60
2022/05/14 02:36:20;;;;;;;2.25;1.70;;;;;;;23.91;47.10;99474.72;5109855;28;20040;-60
2022/05/14 02:38:46;;;;;;;3.20;2.08;;;;;;;23.90;47.06;99478.72;5109968;28;20040;-60
2022/05/14 02:41:13;;;;;;;3.10;1.80;;;;;;;23.91;47.09;99479.50;5110562;28;20130;-60
2022/05/14 02:43:39;;;;;;;2.20;1.60;;;;;;;23.88;46.87;99476.31;5095029;28;20404;-60
2022/05/14 02:46:06;;;;;;;2.58;1.77;;;;;;;23.87;47.14;99477.50;5113523;28;20499;-60
2022/05/14 02:48:33;;;;;;;2.40;1.88;;;;;;;23.88;47.11;99478.31;5113410;28;20043;-61
2022/05/14 02:50:59;;;;;;;2.30;1.77;;;;;;;23.87;46.94;99471.94;5113253;28;20060;-60
2022/05/14 02:53:25;;;;;;;2.00;1.50;;;;;;;23.87;47.04;99473.94;5112605;28;20109;-60
2022/05/14 02:55:51;;;;;;;2.33;1.75;;;;;;;23.84;46.90;99474.69;5113509;28;20048;-60
2022/05/14 03:01:00;;;;;;;2.60;1.90;;;;;;;23.86;46.99;99467.53;5112665;28;20113;-60
2022/05/14 03:03:26;;;;;;;2.17;1.60;;;;;;;23.86;46.91;99473.13;5112895;28;20040;-60
2022/05/14 03:05:51;;;;;;;2.33;1.67;;;;;;;23.86;47.15;99463.91;5112880;28;20032;-60
2022/05/14 03:08:17;;;;;;;2.88;1.90;;;;;;;23.84;47.22;99469.13;5113247;28;20415;-60
2022/05/14 03:10:42;;;;;;;2.25;1.70;;;;;;;23.85;46.98;99462.31;5112864;28;20439;-60
2022/05/14 03:13:08;;;;;;;2.60;1.90;;;;;;;23.84;47.05;99469.13;5112851;28;20032;-60
2022/05/14 03:15:33;;;;;;;2.50;1.80;;;;;;;23.84;47.06;99466.31;5113177;28;20036;-66
2022/05/14 03:17:59;;;;;;;2.63;1.92;;;;;;;23.83;47.04;99468.31;5112445;28;20135;-65
2022/05/14 03:20:25;;;;;;;2.60;2.00;;;;;;;23.81;47.18;99467.91;5112799;28;20058;-66
2022/05/14 03:22:52;;;;;;;2.90;1.75;;;;;;;23.81;47.09;99469.91;5113342;28;20036;-66
2022/05/14 03:25:17;;;;;;;2.30;1.70;;;;;;;23.79;47.13;99464.72;5133198;28;20080;-66
2022/05/14 03:27:43;;;;;;;2.60;1.95;;;;;;;23.79;47.22;99463.91;5133302;28;20043;-60
2022/05/14 03:30:09;;;;;;;2.60;1.77;;;;;;;23.78;47.20;99470.69;5132875;28;20134;-60
2022/05/14 03:32:34;;;;;;;2.70;1.90;;;;;;;23.81;47.03;99467.13;5132565;27;20096;-60
2022/05/14 03:35:02;;;;;;;2.50;1.70;;;;;;;23.80;47.03;99466.31;5133155;28;20043;-60
2022/05/14 03:37:27;;;;;;;2.60;1.90;;;;;;;23.80;47.02;99471.09;5133189;28;20107;-60
2022/05/14 03:39:53;;;;;;;2.38;1.77;;;;;;;23.80;47.09;99473.91;5133055;28;20035;-66
2022/05/14 03:42:18;;;;;;;2.40;1.75;;;;;;;23.79;47.04;99469.47;5132435;28;20047;-60
2022/05/14 03:44:44;;;;;;;2.55;1.95;;;;;;;23.77;47.25;99472.69;5132915;28;20426;-60
2022/05/14 03:47:09;;;;;;;2.67;2.10;;;;;;;23.76;47.07;99471.09;5132898;27;20062;-60
2022/05/14 03:49:34;;;;;;;2.47;1.80;;;;;;;23.77;47.23;99475.47;5132900;28;20406;-60
2022/05/14 03:52:00;;;;;;;2.35;1.80;;;;;;;23.78;47.11;99476.25;5132245;27;20051;-60
2022/05/14 03:54:26;;;;;;;2.50;1.80;;;;;;;23.79;47.13;99475.06;5131694;28;20031;-60
2022/05/14 03:56:51;;;;;;;2.72;1.95;;;;;;;23.76;47.14;99476.66;5132632;28;20074;-60
2022/05/14 03:59:17;;;;;;;2.88;1.90;;;;;;;23.74;47.14;99470.69;5132643;27;20115;-61
2022/05/14 04:01:42;;;;;;;2.83;1.80;;;;;;;23.73;47.14;99469.09;5132857;27;20506;-60
2022/05/14 04:04:07;;;;;;;2.80;2.00;;;;;;;23.74;47.00;99472.69;5132626;28;20355;-60
2022/05/14 04:06:34;;;;;;;2.58;1.90;;;;;;;23.74;47.15;99475.47;5132104;27;20415;-60
2022/05/14 04:09:01;;;;;;;2.47;1.88;;;;;;;23.75;46.95;99483.44;5132347;28;20047;-60
2022/05/14 04:11:27;;;;;;;2.40;1.90;;;;;;;23.74;47.15;99478.25;5132533;27;20043;-60
2022/05/14 04:13:53;;;;;;;2.28;1.67;;;;;;;23.73;47.13;99479.47;5132203;28;20043;-60
2022/05/14 04:16:18;;;;;;;2.40;1.80;;;;;;;23.69;47.22;99479.44;5132498;27;20088;-60
2022/05/14 04:18:44;;;;;;;2.40;1.80;;;;;;;23.71;47.07;99488.22;5131948;27;20427;-60
2022/05/14 04:21:10;;;;;;;2.63;1.90;;;;;;;23.69;47.26;99484.22;5124029;27;20040;-61
2022/05/14 04:23:36;;;;;;;2.60;1.88;;;;;;;23.65;47.21;99484.22;5111732;28;20055;-60
2022/05/14 04:26:02;;;;;;;2.40;1.80;;;;;;;23.69;47.34;99495.38;5112054;28;20067;-60
2022/05/14 04:28:28;;;;;;;2.58;1.90;;;;;;;23.68;47.17;99494.59;5111545;28;20445;-60
2022/05/14 04:30:54;;;;;;;2.70;1.83;;;;;;;23.68;47.22;99500.19;5111365;28;20105;-60
2022/05/14 04:33:20;;;;;;;2.55;1.83;;;;;;;23.70;46.95;99494.19;5111635;28;20050;-61
2022/05/14 04:35:45;;;;;;;2.35;1.75;;;;;;;23.70;47.20;99497.78;5111923;28;20062;-60
2022/05/14 04:38:11;;;;;;;2.50;1.70;;;;;;;23.69;47.26;99495.38;5111973;28;20047;-60
2022/05/14 04:40:38;;;;;;;2.20;1.65;;;;;;;23.69;47.28;99498.19;5093282;28;20075;-60
2022/05/14 04:43:11;;;;;;;2.95;2.10;;;;;;;23.69;47.31;99503.78;5111183;28;20048;-61
2022/05/14 04:45:38;;;;;;;2.90;1.90;;;;;;;23.67;47.28;99497.78;5111298;28;20124;-60
2022/05/14 04:48:04;;;;;;;3.13;2.03;;;;;;;23.68;47.34;99514.13;5111475;28;20051;-60
2022/05/14 04:50:30;;;;;;;3.53;2.05;;;;;;;23.65;47.34;99508.53;5111157;28;20100;-60
2022/05/14 04:52:56;;;;;;;2.55;1.95;;;;;;;23.65;47.34;99503.75;5111352;28;20055;-60
2022/05/14 04:55:22;;;;;;;2.58;1.92;;;;;;;23.69;47.52;99514.94;5110657;28;20186;-61
2022/05/14 04:57:47;;;;;;;2.20;1.70;;;;;;;23.70;47.42;99510.94;5111379;28;20407;-66
2022/05/14 05:00:15;;;;;;;2.47;1.80;;;;;;;23.71;47.49;99516.13;5111307;28;20043;-60
2022/05/14 05:05:27;;;;;;;2.95;2.10;;;;;;;23.71;47.52;99523.72;5110642;28;20249;-60
2022/05/14 05:07:52;;;;;;;2.60;1.88;;;;;;;23.72;47.45;99533.69;5110805;28;20047;-60
2022/05/14 05:10:18;;;;;;;2.90;2.10;;;;;;;23.72;47.34;99536.50;5111088;28;20043;-60
2022/05/14 05:12:44;;;;;;;2.92;2.00;;;;;;;23.70;47.53;99533.28;5111246;28;20812;-60
2022/05/14 05:15:10;;;;;;;2.78;1.92;;;;;;;23.72;47.57;99539.28;5110763;28;20082;-66
2022/05/14 05:17:36;;;;;;;2.60;1.80;;;;;;;23.73;47.46;99543.69;5110947;28;20564;-66
2022/05/14 05:20:02;;;;;;;2.55;1.90;;;;;;;23.72;47.77;99544.88;5110712;28;20126;-66
2022/05/14 05:22:28;;;;;;;2.35;1.77;;;;;;;23.73;47.74;99543.69;5110996;28;20039;-67
2022/05/14 05:24:53;;;;;;;3.13;2.17;;;;;;;23.73;47.86;99541.69;5110735;28;20526;-66
2022/05/14 05:27:18;;;;;;;2.60;1.70;;;;;;;23.74;47.81;99546.09;5110852;28;20039;-65
2022/05/14 05:29:44;;;;;;;2.45;1.90;;;;;;;23.72;48.00;99540.09;5110609;28;20431;-66
2022/05/14 05:32:09;;;;;;;2.72;1.98;;;;;;;23.74;47.89;99542.50;5110545;28;20055;-65
2022/05/14 05:34:35;;;;;;;2.53;1.75;;;;;;;23.74;47.84;99540.50;5110361;28;20122;-66
2022/05/14 05:37:00;;;;;;;2.55;1.77;;;;;;;23.74;47.81;99542.50;5110805;28;20134;-66
2022/05/14 05:39:25;;;;;;;2.10;1.60;;;;;;;23.74;47.84;99543.31;5110712;28;20036;-65
2022/05/14 05:41:51;;;;;;;2.58;1.90;;;;;;;23.73;47.68;99540.91;5110560;28;20446;-66
2022/05/14 05:44:17;;;;;;;3.20;2.03;;;;;;;23.76;47.88;99548.50;5110177;28;20063;-65
2022/05/14 05:46:42;;;;;;;2.70;1.90;;;;;;;23.78;47.62;99548.88;5110629;28;20040;-60
2022/05/14 05:49:08;;;;;;;2.60;1.90;;;;;;;23.79;47.58;99547.69;5110547;28;20107;-60
2022/05/14 05:51:34;;;;;;;2.10;1.60;;;;;;;23.79;47.44;99544.91;5110517;28;20040;-60
2022/05/14 05:56:46;;;;;;;2.78;2.00;;;;;;;23.77;47.62;99536.91;5110147;28;20051;-60
2022/05/14 05:59:12;;;;;;;2.50;1.88;;;;;;;23.79;47.34;99533.72;5112029;28;20126;-60
2022/05/14 06:01:38;;;;;;;2.38;1.85;;;;;;;23.78;47.26;99538.50;5110387;28;20040;-60
2022/05/14 06:04:03;;;;;;;2.58;2.00;;;;;;;23.77;47.24;99548.09;5110421;28;20046;-60
2022/05/14 06:06:29;;;;;;;3.08;2.00;;;;;;;23.79;47.38;99551.31;5110074;28;20070;-60
2022/05/14 06:08:55;;;;;;;2.60;2.10;;;;;;;23.80;47.04;99546.53;5109749;28;20044;-60
2022/05/14 06:11:21;;;;;;;2.88;2.00;;;;;;;23.79;47.13;99530.94;5110293;28;20104;-66
2022/05/14 06:13:47;;;;;;;2.97;2.03;;;;;;;23.82;47.09;99538.53;5110190;28;20043;-65
2022/05/14 06:16:14;;;;;;;2.85;2.10;;;;;;;23.81;47.19;99537.75;5109061;28;20044;-66
2022/05/14 06:18:39;;;;;;;3.08;2.20;;;;;;;23.80;47.02;99540.94;5109946;28;20121;-66
2022/05/14 06:21:05;;;;;;;2.50;1.90;;;;;;;23.82;47.16;99535.75;5109678;28;20502;-66
2022/05/14 06:23:32;;;;;;;2.72;1.83;;;;;;;23.82;46.90;99538.53;5110059;28;20415;-66
2022/05/14 06:25:57;;;;;;;2.55;1.90;;;;;;;23.85;47.09;99534.94;5109916;28;20040;-60
2022/05/14 06:28:23;;;;;;;2.58;1.83;;;;;;;23.85;47.00;99532.16;5110133;28;20055;-61
2022/05/14 06:30:49;;;;;;;2.30;1.73;;;;;;;23.84;46.96;99530.56;5109915;28;20535;-60
2022/05/14 06:33:17;;;;;;;2.70;1.90;;;;;;;23.86;46.95;99531.78;5109687;28;20495;-60
2022/05/14 06:35:43;;;;;;;3.08;2.15;;;;;;;23.86;46.76;99528.16;5109765;28;20487;-60
2022/05/14 06:38:09;;;;;;;2.35;1.70;;;;;;;23.86;46.97;99533.75;5109916;28;20882;-60
2022/05/14 06:40:36;;;;;;;3.05;1.88;;;;;;;23.87;46.90;99535.38;5109810;28;20046;-60
2022/05/14 06:43:02;;;;;;;2.30;1.83;;;;;;;23.87;46.95;99536.19;5109926;28;20101;-66
2022/05/14 06:45:27;;;;;;;2.78;1.90;;;;;;;23.88;46.99;99536.97;5109288;28;20043;-65
2022/05/14 06:47:53;;;;;;;2.47;1.90;;;;;;;23.88;47.06;99536.97;5109798;28;20036;-66
2022/05/14 06:50:19;;;;;;;2.72;1.95;;;;;;;23.87;47.08;99536.19;5109815;28;20423;-65
2022/05/14 06:52:48;;;;;;;3.00;2.08;;;;;;;23.86;47.17;99534.59;5109823;28;20058;-65
2022/05/14 06:55:19;;;;;;;2.67;1.85;;;;;;;23.87;47.14;99527.81;5109591;28;20491;-65
2022/05/14 06:57:45;;;;;;;3.30;2.10;;;;;;;23.87;47.14;99540.97;5109211;28;20040;-66
2022/05/14 07:00:11;;;;;;;2.83;2.08;;;;;;;23.86;47.22;99533.75;5109678;28;20040;-65
2022/05/14 07:02:37;;;;;;;2.72;2.10;;;;;;;23.84;47.01;99534.16;5109636;28;20048;-66
2022/05/14 07:07:47;;;;;;;2.53;1.90;;;;;;;23.87;47.07;99524.22;5109483;28;20067;-66
2022/05/14 07:10:13;;;;;;;2.50;2.00;;;;;;;23.88;47.00;99528.59;5109121;28;20055;-66
2022/05/14 07:12:39;;;;;;;2.85;1.98;;;;;;;23.89;47.08;99519.03;5109382;28;20097;-66
2022/05/14 07:15:06;;;;;;;3.15;2.10;;;;;;;23.89;47.20;99516.22;5109421;28;20040;-66
2022/05/14 07:17:32;;;;;;;2.80;1.92;;;;;;;23.88;47.02;99515.44;5108710;28;20051;-66
2022/05/14 07:19:57;;;;;;;3.83;1.92;;;;;;;23.86;47.31;99512.25;5109437;28;20035;-66
2022/05/14 07:22:23;;;;;;;2.80;2.10;;;;;;;23.87;47.19;99507.44;5109012;28;20131;-60
2022/05/14 07:24:48;;;;;;;2.63;1.92;;;;;;;23.86;47.35;99511.41;5109429;28;20048;-60
2022/05/14 07:27:14;;;;;;;2.47;1.83;;;;;;;23.87;47.22;99502.66;5091917;28;20040;-60
2022/05/14 07:29:42;;;;;;;3.28;2.00;;;;;;;23.89;47.30;99507.84;5112617;28;20097;-60
2022/05/14 07:32:14;;;;;;;2.92;1.90;;;;;;;23.88;47.36;99507.03;5112799;28;20044;-61
2022/05/14 07:34:41;;;;;;;2.80;2.08;;;;;;;23.89;47.22;99502.25;5112315;28;20040;-66
2022/05/14 07:37:09;;;;;;;2.85;2.28;;;;;;;23.91;47.41;99497.06;5112510;28;20054;-66
2022/05/14 07:39:40;;;;;;;2.42;1.90;;;;;;;23.91;47.33;99494.28;5112494;28;20523;-65
2022/05/14 07:42:13;;;;;;;2.78;2.00;;;;;;;23.90;47.27;99487.09;5112518;28;20487;-66
2022/05/14 07:44:42;;;;;;;2.40;1.80;;;;;;;23.90;47.18;99481.50;5112453;28;20468;-66
2022/05/14 07:47:08;;;;;;;2.58;1.90;;;;;;;23.92;47.32;99484.69;5112002;28;20052;-66
2022/05/14 07:49:34;;;;;;;3.15;2.03;;;;;;;23.96;47.23;99487.50;5112446;28;20059;-60
2022/05/14 07:52:01;;;;;;;2.42;1.90;;;;;;;23.93;47.18;99480.72;5112484;28;20088;-60
2022/05/14 07:54:28;;;;;;;3.25;1.98;;;;;;;23.95;47.14;99483.13;5112481;28;20051;-66
2022/05/14 07:56:55;;;;;;;2.70;2.05;;;;;;;23.96;47.20;99493.91;5112183;28;20085;-66
2022/05/14 07:59:21;;;;;;;2.42;1.80;;;;;;;23.96;47.14;99485.53;5112008;28;20054;-65
2022/05/14 08:01:47;;;;;;;2.72;1.98;;;;;;;23.99;47.12;99492.31;5112212;28;20047;-66
2022/05/14 08:04:12;;;;;;;2.67;2.17;;;;;;;23.98;47.24;99487.91;5112330;28;20055;-66
2022/05/14 08:06:38;;;;;;;2.53;1.85;;;;;;;23.98;47.22;99494.31;5111916;28;20042;-66
2022/05/14 08:09:04;;;;;;;2.88;2.10;;;;;;;23.98;47.23;99485.91;5112259;28;20052;-66
2022/05/14 08:11:30;;;;;;;3.33;2.28;;;;;;;23.98;47.25;99485.91;5111981;28;20415;-66
2022/05/14 08:13:58;;;;;;;2.97;2.22;;;;;;;24.00;47.38;99491.09;5112122;28;20048;-66
2022/05/14 08:16:24;;;;;;;4.28;2.17;;;;;;;24.01;47.38;99496.31;5112124;28;20043;-66
2022/05/14 08:18:50;;;;;;;3.08;2.00;;;;;;;24.02;47.35;99489.53;5111505;28;20041;-66
2022/05/14 08:26:43;;;;;;;2.50;2.00;;;;;;;24.03;47.49;99487.53;5112156;28;20055;-60
2022/05/14 08:29:09;;;;;;;2.70;1.88;;;;;;;24.04;47.41;99500.31;5111678;28;20051;-60
2022/05/14 08:31:34;;;;;;;2.92;1.98;;;;;;;24.05;47.60;99502.69;5111926;28;20490;-60
2022/05/14 08:34:00;;;;;;;2.88;2.35;;;;;;;24.07;47.58;99488.31;5111868;28;20439;-60
2022/05/14 08:36:26;;;;;;;2.92;2.15;;;;;;;24.07;47.42;99496.72;5111383;28;20044;-60
2022/05/14 08:38:51;;;;;;;2.88;1.77;;;;;;;24.07;47.41;99491.91;5110752;28;20403;-60
2022/05/14 08:41:18;;;;;;;3.15;2.40;;;;;;;24.09;47.40;99492.34;5111692;28;20522;-61
2022/05/14 08:43:47;;;;;;;2.70;1.98;;;;;;;24.09;47.52;99492.34;5111597;28;20048;-60
2022/05/14 08:46:17;;;;;;;2.75;2.08;;;;;;;24.11;47.46;99498.34;5111752;28;20129;-60
2022/05/14 08:48:43;;;;;;;2.95;2.22;;;;;;;24.11;47.56;99489.16;5111001;28;20047;-60
2022/05/14 08:51:16;;;;;;;2.40;1.90;;;;;;;24.13;47.50;99498.72;5111566;28;20047;-60
2022/05/14 08:53:44;;;;;;;2.58;2.08;;;;;;;24.13;47.45;99495.13;5111407;28;20122;-60
2022/05/14 08:56:18;;;;;;;3.13;2.30;;;;;;;24.12;47.50;99497.13;5111566;28;20047;-60
2022/05/14 08:59:10;;;;;;;3.03;2.22;;;;;;;24.13;47.50;99503.53;5111157;28;20044;-60
2022/05/14 09:01:39;;;;;;;2.70;1.90;;;;;;;24.13;47.61;99495.13;5111433;28;20055;-60
2022/05/14 09:04:08;;;;;;;2.83;2.13;;;;;;;24.13;47.62;99493.13;5111253;28;20065;-60
2022/05/14 09:06:36;;;;;;;2.70;2.10;;;;;;;24.12;47.65;99488.75;5108963;28;20046;-61
2022/05/14 09:09:02;;;;;;;2.90;2.22;;;;;;;24.15;47.75;99493.56;5111188;28;20092;-60
2022/05/14 09:12:03;;;;;;;2.72;2.00;;;;;;;24.15;47.77;99487.97;5111115;28;20134;-60
2022/05/14 09:14:34;;;;;;;2.85;2.20;;;;;;;24.16;47.74;99475.59;5110653;28;20039;-60
2022/05/14 09:17:11;;;;;;;3.10;2.20;;;;;;;24.18;47.74;99483.56;5111053;28;20514;-60
2022/05/14 09:19:40;;;;;;;2.80;2.30;;;;;;;24.18;47.82;99475.19;5110989;28;20070;-60
2022/05/14 09:22:27;;;;;;;3.33;2.15;;;;;;;24.19;47.92;99478.78;5111155;28;20077;-60
2022/05/14 09:24:58;;;;;;;2.70;1.90;;;;;;;24.19;47.82;99476.78;5110972;28;20051;-60
2022/05/14 09:27:43;;;;;;;2.92;2.33;;;;;;;24.22;47.93;99472.38;5111249;28;20038;-66
2022/05/14 09:30:21;;;;;;;2.63;2.00;;;;;;;24.22;48.02;99466.81;5110842;28;20306;-66
2022/05/14 09:32:46;;;;;;;2.88;2.15;;;;;;;24.24;47.93;99461.63;5110722;28;20059;-66
2022/05/14 09:35:27;;;;;;;2.60;2.05;;;;;;;24.24;48.00;99458.84;5110727;28;20040;-66
2022/05/14 09:38:10;;;;;;;2.80;2.10;;;;;;;24.24;48.02;99447.66;5110701;28;20579;-66
2022/05/14 09:40:37;;;;;;;2.88;2.10;;;;;;;24.25;47.92;99450.06;5110710;28;20121;-60
2022/05/14 09:43:14;;;;;;;3.00;2.10;;;;;;;24.25;47.92;99450.06;5110740;28;20515;-60
2022/05/14 09:45:44;;;;;;;2.70;2.08;;;;;;;24.27;47.84;99446.84;5110890;28;20127;-60
2022/05/14 09:48:11;;;;;;;2.90;2.08;;;;;;;24.27;47.92;99444.06;5110208;28;20537;-60
2022/05/14 09:50:40;;;;;;;2.90;2.42;;;;;;;24.28;47.67;99435.25;5109110;28;20047;-60
2022/05/14 09:53:06;;;;;;;3.13;2.30;;;;;;;24.29;47.91;99436.06;5110583;28;20051;-65
2022/05/14 09:56:16;;;;;;;2.85;2.20;;;;;;;24.28;47.63;99432.47;5110586;28;20067;-66
2022/05/14 09:58:49;;;;;;;2.30;1.75;;;;;;;24.30;47.89;99429.31;5110452;28;20093;-66
2022/05/14 10:02:11;;;;;;;2.80;2.00;;;;;;;24.30;47.65;99418.13;5110405;28;20058;-66
2022/05/14 10:05:14;;;;;;;3.90;2.13;;;;;;;24.32;47.56;99422.09;5100377;28;20561;-66
2022/05/14 10:07:42;;;;;;;2.97;2.20;;;;;;;24.29;47.89;99417.31;5104472;28;20047;-66
2022/05/14 10:10:32;;;;;;;2.90;2.20;;;;;;;24.33;47.63;99422.94;5109912;28;20051;-66
2022/05/14 10:13:06;;;;;;;2.65;2.00;;;;;;;24.32;47.64;99419.31;5109719;28;20050;-66
2022/05/14 10:15:41;;;;;;;2.88;1.90;;;;;;;24.33;47.56;99426.53;5110125;28;20071;-66
2022/05/14 10:18:15;;;;;;;2.85;2.20;;;;;;;24.34;47.45;99414.13;5109307;27;20063;-66
2022/05/14 10:20:43;;;;;;;3.20;2.20;;;;;;;24.36;47.34;99416.53;5151125;27;20051;-60
2022/05/14 10:26:45;;;;;;;2.75;2.00;;;;;;;24.36;47.45;99399.75;5151224;27;20125;-60
2022/05/14 10:29:16;;;;;;;2.90;2.22;;;;;;;24.37;47.34;99406.97;5150919;27;20416;-60
2022/05/14 10:31:55;;;;;;;3.22;2.20;;;;;;;24.37;47.34;99399.38;5151286;27;20035;-60
2022/05/14 10:34:36;;;;;;;2.55;1.98;;;;;;;24.38;47.41;99397.38;5151291;27;20039;-60
2022/05/14 10:37:14;;;;;;;2.50;1.85;;;;;;;24.38;47.39;99394.59;5151069;27;20043;-65
2022/05/14 10:40:02;;;;;;;3.40;2.22;;;;;;;24.40;47.31;99395.78;5150905;27;20175;-66
2022/05/14 10:42:50;;;;;;;2.72;2.10;;;;;;;24.41;47.20;99390.97;5150886;27;20515;-66
2022/05/14 10:45:23;;;;;;;2.65;2.00;;;;;;;24.41;47.25;99380.59;5150581;27;20042;-60
2022/05/14 10:48:15;;;;;;;2.90;1.85;;;;;;;24.43;47.28;99395.00;5147459;27;20047;-60
2022/05/14 10:50:40;;;;;;;3.05;2.10;;;;;;;24.46;47.26;99387.00;5148417;27;20423;-61
2022/05/14 10:53:08;;;;;;;2.58;1.98;;;;;;;24.45;47.00;99382.59;5151122;27;20046;-60
2022/05/14 10:55:59;;;;;;;2.72;1.73;;;;;;;24.43;47.25;99382.97;5132568;27;20459;-60
2022/05/14 10:58:45;;;;;;;2.90;2.00;;;;;;;24.47;47.16;99377.41;5101942;27;20050;-60
2022/05/14 11:01:49;;;;;;;2.42;1.83;;;;;;;24.47;47.36;99375.41;5150246;27;20046;-60
2022/05/14 11:04:45;;;;;;;2.58;1.88;;;;;;;24.48;47.36;99363.00;5114673;27;20051;-61
2022/05/14 11:07:25;;;;;;;2.38;1.80;;;;;;;24.46;47.46;99371.00;5143564;27;20051;-60
2022/05/14 11:09:51;;;;;;;2.42;1.98;;;;;;;24.45;47.08;99363.03;5153916;27;20050;-60
2022/05/14 11:12:19;;;;;;;2.60;1.90;;;;;;;24.46;47.26;99365.41;5153986;27;20053;-60
2022/05/14 11:14:46;;;;;;;2.65;2.05;;;;;;;24.48;47.14;99357.41;5151034;27;20066;-60
2022/05/14 11:17:28;;;;;;;2.47;1.75;;;;;;;24.48;47.10;99363.00;5112805;28;20051;-60
2022/05/14 11:20:20;;;;;;;2.40;1.75;;;;;;;24.49;46.98;99349.81;5113128;28;20113;-60
2022/05/14 11:22:48;;;;;;;2.45;1.90;;;;;;;24.51;46.73;99351.03;5109745;28;20043;-61
2022/05/14 11:25:24;;;;;;;3.00;1.90;;;;;;;24.49;46.75;99353.41;5112704;28;20048;-60
2022/05/14 11:28:04;;;;;;;2.58;2.10;;;;;;;24.51;46.86;99344.66;5112587;28;20047;-60
2022/05/14 11:30:40;;;;;;;2.50;1.80;;;;;;;24.50;46.80;99332.66;5095720;28;20044;-60
2022/05/14 11:33:26;;;;;;;3.20;1.90;;;;;;;24.51;46.95;99337.06;5103130;28;20599;-60
2022/05/14 11:35:59;;;;;;;2.45;1.85;;;;;;;24.51;46.80;99331.47;5092117;28;20055;-66
2022/05/14 11:38:24;;;;;;;2.38;1.67;;;;;;;24.53;47.08;99333.84;5090202;28;20044;-66
2022/05/14 11:40:57;;;;;;;2.38;1.73;;;;;;;24.53;47.04;99326.25;5092768;28;20415;-66
2022/05/14 11:43:30;;;;;;;2.40;1.70;;;;;;;24.55;46.91;99317.47;5097103;28;20044;-66
2022/05/14 11:46:17;;;;;;;6.97;1.92;;;;;;;24.55;47.33;99317.47;5098139;28;20040;-60
2022/05/14 11:48:47;;;;;;;6.20;1.88;;;;;;;24.53;47.31;99312.28;5090345;28;20123;-60
2022/05/14 11:51:25;;;;;;;2.70;1.80;;;;;;;24.53;47.14;99308.69;5101205;28;20054;-67
2022/05/14 11:54:11;;;;;;;2.95;1.83;;;;;;;24.56;47.36;99305.88;5096660;27;20047;-66
2022/05/14 11:56:44;;;;;;;9.85;2.00;;;;;;;24.58;47.32;99305.50;5086109;28;20051;-68
2022/05/14 11:59:24;;;;;;;2.70;1.70;;;;;;;24.59;47.53;99304.28;5108019;28;20044;-67
2022/05/14 12:01:51;;;;;;;2.78;1.88;;;;;;;24.59;47.41;99296.69;5111505;28;20058;-67
2022/05/14 12:04:33;;;;;;;2.58;1.90;;;;;;;24.63;47.60;99307.84;5109864;28;20043;-67
2022/05/14 12:07:01;;;;;;;2.42;1.70;;;;;;;24.64;47.88;99293.47;5106700;28;20418;-69
2022/05/14 12:09:36;;;;;;;3.47;2.05;;;;;;;24.69;47.52;99306.25;5103243;28;20040;-68